<?xml version="1.0" encoding="UTF-8" standalone="no" ?>
<gpx xmlns="http://www.topografix.com/GPX/1/1" xmlns:xsi="http://www.w3.org/2001/XMLSchema-instance" xsi:schemaLocation="http://www.topografix.com/GPX/1/1 http://www.topografix.com/GPX/1/1/gpx.xsd" version="1.1" creator="VisuGPX - https://www.visugpx.com">
  <metadata>
    <name>Sigoyer Peyssier J 1</name>
    <desc><![CDATA[1° journée de la Boucle Sigoyer Peyssier]]></desc>
  </metadata>
  <trk>
    <name><![CDATA[OR-6599864--Sigoyer:Sigoyer Peyssier]]></name>
    <trkseg>
      <trkpt lat="44.47918" lon="5.9782">
        <ele>1008</ele>
        <time>2016-09-18T11:53:43Z</time>
      </trkpt>
      <trkpt lat="44.4798" lon="5.97767">
        <ele>1020</ele>
        <time>2016-09-18T11:55:43Z</time>
      </trkpt>
      <trkpt lat="44.48026" lon="5.97797">
        <ele>1025</ele>
        <time>2016-09-18T11:57:43Z</time>
      </trkpt>
      <trkpt lat="44.48012" lon="5.9772">
        <ele>1029</ele>
        <time>2016-09-18T11:59:43Z</time>
      </trkpt>
      <trkpt lat="44.48195" lon="5.9793">
        <ele>1043</ele>
        <time>2016-09-18T12:01:43Z</time>
      </trkpt>
      <trkpt lat="44.48185" lon="5.9776">
        <ele>1057</ele>
        <time>2016-09-18T12:03:43Z</time>
      </trkpt>
      <trkpt lat="44.48208" lon="5.97664">
        <ele>1066</ele>
        <time>2016-09-18T12:05:43Z</time>
      </trkpt>
      <trkpt lat="44.4824" lon="5.97662">
        <ele>1071</ele>
        <time>2016-09-18T12:07:43Z</time>
      </trkpt>
      <trkpt lat="44.48326" lon="5.97739">
        <ele>1085</ele>
        <time>2016-09-18T12:09:43Z</time>
      </trkpt>
      <trkpt lat="44.48375" lon="5.97769">
        <ele>1095</ele>
        <time>2016-09-18T12:11:43Z</time>
      </trkpt>
      <trkpt lat="44.48427" lon="5.97623">
        <ele>1098</ele>
        <time>2016-09-18T12:13:43Z</time>
      </trkpt>
      <trkpt lat="44.4844" lon="5.97527">
        <ele>1098</ele>
        <time>2016-09-18T12:15:43Z</time>
      </trkpt>
      <trkpt lat="44.48534" lon="5.97589">
        <ele>1111</ele>
        <time>2016-09-18T12:17:43Z</time>
      </trkpt>
      <trkpt lat="44.48711" lon="5.9766">
        <ele>1121</ele>
        <time>2016-09-18T12:19:43Z</time>
      </trkpt>
      <trkpt lat="44.48734" lon="5.97565">
        <ele>1122</ele>
        <time>2016-09-18T12:21:43Z</time>
      </trkpt>
      <trkpt lat="44.48826" lon="5.97499">
        <ele>1132</ele>
        <time>2016-09-18T12:23:43Z</time>
      </trkpt>
      <trkpt lat="44.48744" lon="5.97357">
        <ele>1140</ele>
        <time>2016-09-18T12:25:43Z</time>
      </trkpt>
      <trkpt lat="44.48676" lon="5.97145">
        <ele>1150</ele>
        <time>2016-09-18T12:27:43Z</time>
      </trkpt>
      <trkpt lat="44.48675" lon="5.97057">
        <ele>1156</ele>
        <time>2016-09-18T12:29:43Z</time>
      </trkpt>
      <trkpt lat="44.48546" lon="5.96975">
        <ele>1149</ele>
        <time>2016-09-18T12:31:43Z</time>
      </trkpt>
      <trkpt lat="44.48508" lon="5.96844">
        <ele>1151</ele>
        <time>2016-09-18T12:33:43Z</time>
      </trkpt>
      <trkpt lat="44.48335" lon="5.96432">
        <ele>1153</ele>
        <time>2016-09-18T12:35:43Z</time>
      </trkpt>
      <trkpt lat="44.48272" lon="5.96368">
        <ele>1146</ele>
        <time>2016-09-18T12:37:43Z</time>
      </trkpt>
      <trkpt lat="44.48151" lon="5.96321">
        <ele>1133</ele>
        <time>2016-09-18T12:39:43Z</time>
      </trkpt>
      <trkpt lat="44.48065" lon="5.9619">
        <ele>1123</ele>
        <time>2016-09-18T12:41:43Z</time>
      </trkpt>
      <trkpt lat="44.48021" lon="5.96198">
        <ele>1111</ele>
        <time>2016-09-18T12:43:43Z</time>
      </trkpt>
      <trkpt lat="44.48033" lon="5.9617">
        <ele>1112</ele>
        <time>2016-09-18T12:45:43Z</time>
      </trkpt>
      <trkpt lat="44.48073" lon="5.96143">
        <ele>1120</ele>
        <time>2016-09-18T12:47:43Z</time>
      </trkpt>
      <trkpt lat="44.48107" lon="5.96044">
        <ele>1121</ele>
        <time>2016-09-18T12:49:43Z</time>
      </trkpt>
      <trkpt lat="44.48061" lon="5.96014">
        <ele>1108</ele>
        <time>2016-09-18T12:51:43Z</time>
      </trkpt>
      <trkpt lat="44.48059" lon="5.95967">
        <ele>1109</ele>
        <time>2016-09-18T12:53:43Z</time>
      </trkpt>
      <trkpt lat="44.4809" lon="5.95926">
        <ele>1116</ele>
        <time>2016-09-18T12:55:43Z</time>
      </trkpt>
      <trkpt lat="44.48101" lon="5.95801">
        <ele>1126</ele>
        <time>2016-09-18T12:57:43Z</time>
      </trkpt>
      <trkpt lat="44.48065" lon="5.95806">
        <ele>1123</ele>
        <time>2016-09-18T12:59:43Z</time>
      </trkpt>
      <trkpt lat="44.48035" lon="5.95816">
        <ele>1123</ele>
        <time>2016-09-18T13:01:43Z</time>
      </trkpt>
      <trkpt lat="44.48007" lon="5.9584">
        <ele>1120</ele>
        <time>2016-09-18T13:03:43Z</time>
      </trkpt>
      <trkpt lat="44.47949" lon="5.95793">
        <ele>1133</ele>
        <time>2016-09-18T13:05:43Z</time>
      </trkpt>
      <trkpt lat="44.4792" lon="5.9578">
        <ele>1138</ele>
        <time>2016-09-18T13:07:43Z</time>
      </trkpt>
      <trkpt lat="44.47883" lon="5.95681">
        <ele>1154</ele>
        <time>2016-09-18T13:09:43Z</time>
      </trkpt>
      <trkpt lat="44.47906" lon="5.9561">
        <ele>1165</ele>
        <time>2016-09-18T13:11:43Z</time>
      </trkpt>
      <trkpt lat="44.47995" lon="5.95437">
        <ele>1182</ele>
        <time>2016-09-18T13:13:43Z</time>
      </trkpt>
      <trkpt lat="44.48022" lon="5.95226">
        <ele>1210</ele>
        <time>2016-09-18T13:15:43Z</time>
      </trkpt>
      <trkpt lat="44.48024" lon="5.95192">
        <ele>1216</ele>
        <time>2016-09-18T13:17:43Z</time>
      </trkpt>
      <trkpt lat="44.48038" lon="5.95162">
        <ele>1219</ele>
        <time>2016-09-18T13:19:43Z</time>
      </trkpt>
      <trkpt lat="44.48078" lon="5.95046">
        <ele>1232</ele>
        <time>2016-09-18T13:21:43Z</time>
      </trkpt>
      <trkpt lat="44.48169" lon="5.95027">
        <ele>1227</ele>
        <time>2016-09-18T13:23:43Z</time>
      </trkpt>
      <trkpt lat="44.48176" lon="5.94881">
        <ele>1238</ele>
        <time>2016-09-18T13:25:43Z</time>
      </trkpt>
      <trkpt lat="44.48203" lon="5.94825">
        <ele>1237</ele>
        <time>2016-09-18T13:27:43Z</time>
      </trkpt>
      <trkpt lat="44.48182" lon="5.94761">
        <ele>1249</ele>
        <time>2016-09-18T13:29:43Z</time>
      </trkpt>
      <trkpt lat="44.48225" lon="5.94789">
        <ele>1237</ele>
        <time>2016-09-18T13:31:43Z</time>
      </trkpt>
      <trkpt lat="44.48277" lon="5.94748">
        <ele>1234</ele>
        <time>2016-09-18T13:33:43Z</time>
      </trkpt>
      <trkpt lat="44.48353" lon="5.94664">
        <ele>1239</ele>
        <time>2016-09-18T13:35:43Z</time>
      </trkpt>
      <trkpt lat="44.48362" lon="5.94698">
        <ele>1237</ele>
        <time>2016-09-18T13:37:43Z</time>
      </trkpt>
      <trkpt lat="44.48424" lon="5.94703">
        <ele>1242</ele>
        <time>2016-09-18T13:39:43Z</time>
      </trkpt>
      <trkpt lat="44.48468" lon="5.94621">
        <ele>1250</ele>
        <time>2016-09-18T13:41:43Z</time>
      </trkpt>
      <trkpt lat="44.48477" lon="5.94495">
        <ele>1256</ele>
        <time>2016-09-18T13:43:43Z</time>
      </trkpt>
      <trkpt lat="44.48509" lon="5.9446">
        <ele>1262</ele>
        <time>2016-09-18T13:45:43Z</time>
      </trkpt>
      <trkpt lat="44.48543" lon="5.94306">
        <ele>1274</ele>
        <time>2016-09-18T13:47:43Z</time>
      </trkpt>
      <trkpt lat="44.4865" lon="5.94068">
        <ele>1296</ele>
        <time>2016-09-18T13:49:43Z</time>
      </trkpt>
      <trkpt lat="44.4865" lon="5.94033">
        <ele>1299</ele>
        <time>2016-09-18T13:51:43Z</time>
      </trkpt>
      <trkpt lat="44.4859" lon="5.9402">
        <ele>1298</ele>
        <time>2016-09-18T13:53:43Z</time>
      </trkpt>
      <trkpt lat="44.48525" lon="5.93958">
        <ele>1303</ele>
        <time>2016-09-18T13:55:43Z</time>
      </trkpt>
      <trkpt lat="44.48515" lon="5.93919">
        <ele>1305</ele>
        <time>2016-09-18T13:57:43Z</time>
      </trkpt>
      <trkpt lat="44.48496" lon="5.93744">
        <ele>1321</ele>
        <time>2016-09-18T13:59:43Z</time>
      </trkpt>
      <trkpt lat="44.48508" lon="5.93716">
        <ele>1323</ele>
        <time>2016-09-18T14:01:43Z</time>
      </trkpt>
      <trkpt lat="44.48454" lon="5.93681">
        <ele>1338</ele>
        <time>2016-09-18T14:03:43Z</time>
      </trkpt>
      <trkpt lat="44.48379" lon="5.93765">
        <ele>1340</ele>
        <time>2016-09-18T14:05:43Z</time>
      </trkpt>
      <trkpt lat="44.48249" lon="5.93857">
        <ele>1359</ele>
        <time>2016-09-18T14:07:43Z</time>
      </trkpt>
      <trkpt lat="44.48197" lon="5.93937">
        <ele>1368</ele>
        <time>2016-09-18T14:09:43Z</time>
      </trkpt>
      <trkpt lat="44.48133" lon="5.94001">
        <ele>1380</ele>
        <time>2016-09-18T14:11:43Z</time>
      </trkpt>
      <trkpt lat="44.4807" lon="5.94117">
        <ele>1379</ele>
        <time>2016-09-18T14:13:43Z</time>
      </trkpt>
      <trkpt lat="44.47911" lon="5.94233">
        <ele>1405</ele>
        <time>2016-09-18T14:15:43Z</time>
      </trkpt>
      <trkpt lat="44.47868" lon="5.94366">
        <ele>1408</ele>
        <time>2016-09-18T14:17:43Z</time>
      </trkpt>
      <trkpt lat="44.47778" lon="5.94387">
        <ele>1424</ele>
        <time>2016-09-18T14:19:43Z</time>
      </trkpt>
      <trkpt lat="44.47719" lon="5.94389">
        <ele>1436</ele>
        <time>2016-09-18T14:21:43Z</time>
      </trkpt>
      <trkpt lat="44.47523" lon="5.9454">
        <ele>1455</ele>
        <time>2016-09-18T14:23:43Z</time>
      </trkpt>
      <trkpt lat="44.47412" lon="5.94666">
        <ele>1461</ele>
        <time>2016-09-18T14:25:43Z</time>
      </trkpt>
      <trkpt lat="44.47379" lon="5.94647">
        <ele>1462</ele>
        <time>2016-09-18T14:27:43Z</time>
      </trkpt>
      <trkpt lat="44.4745" lon="5.94518">
        <ele>1488</ele>
        <time>2016-09-18T14:29:43Z</time>
      </trkpt>
      <trkpt lat="44.47484" lon="5.94368">
        <ele>1514</ele>
        <time>2016-09-18T14:31:43Z</time>
      </trkpt>
      <trkpt lat="44.47586" lon="5.94246">
        <ele>1512</ele>
        <time>2016-09-18T14:33:43Z</time>
      </trkpt>
      <trkpt lat="44.47626" lon="5.94143">
        <ele>1527</ele>
        <time>2016-09-18T14:35:43Z</time>
      </trkpt>
      <trkpt lat="44.47686" lon="5.94057">
        <ele>1528</ele>
        <time>2016-09-18T14:37:43Z</time>
      </trkpt>
      <trkpt lat="44.47701" lon="5.93889">
        <ele>1551</ele>
        <time>2016-09-18T14:39:43Z</time>
      </trkpt>
      <trkpt lat="44.47741" lon="5.9381">
        <ele>1554</ele>
        <time>2016-09-18T14:41:43Z</time>
      </trkpt>
      <trkpt lat="44.47745" lon="5.93729">
        <ele>1565</ele>
        <time>2016-09-18T14:43:43Z</time>
      </trkpt>
      <trkpt lat="44.47776" lon="5.93604">
        <ele>1567</ele>
        <time>2016-09-18T14:45:43Z</time>
      </trkpt>
      <trkpt lat="44.47761" lon="5.93533">
        <ele>1572</ele>
        <time>2016-09-18T14:47:43Z</time>
      </trkpt>
      <trkpt lat="44.47778" lon="5.93452">
        <ele>1575</ele>
        <time>2016-09-18T14:49:43Z</time>
      </trkpt>
      <trkpt lat="44.47718" lon="5.93503">
        <ele>1580</ele>
        <time>2016-09-18T14:51:43Z</time>
      </trkpt>
      <trkpt lat="44.47678" lon="5.93514">
        <ele>1588</ele>
        <time>2016-09-18T14:53:43Z</time>
      </trkpt>
      <trkpt lat="44.47654" lon="5.9345">
        <ele>1576</ele>
        <time>2016-09-18T14:55:43Z</time>
      </trkpt>
      <trkpt lat="44.47513" lon="5.93439">
        <ele>1557</ele>
        <time>2016-09-18T14:57:43Z</time>
      </trkpt>
      <trkpt lat="44.47496" lon="5.93392">
        <ele>1550</ele>
        <time>2016-09-18T14:59:43Z</time>
      </trkpt>
      <trkpt lat="44.47529" lon="5.93349">
        <ele>1541</ele>
        <time>2016-09-18T15:01:43Z</time>
      </trkpt>
      <trkpt lat="44.4748" lon="5.9334">
        <ele>1533</ele>
        <time>2016-09-18T15:03:43Z</time>
      </trkpt>
      <trkpt lat="44.47491" lon="5.93312">
        <ele>1527</ele>
        <time>2016-09-18T15:05:43Z</time>
      </trkpt>
      <trkpt lat="44.4745" lon="5.93297">
        <ele>1513</ele>
        <time>2016-09-18T15:07:43Z</time>
      </trkpt>
      <trkpt lat="44.47404" lon="5.93336">
        <ele>1508</ele>
        <time>2016-09-18T15:09:43Z</time>
      </trkpt>
      <trkpt lat="44.47379" lon="5.93336">
        <ele>1497</ele>
        <time>2016-09-18T15:11:43Z</time>
      </trkpt>
      <trkpt lat="44.47407" lon="5.93224">
        <ele>1482</ele>
        <time>2016-09-18T15:13:43Z</time>
      </trkpt>
      <trkpt lat="44.47275" lon="5.93274">
        <ele>1451</ele>
        <time>2016-09-18T15:15:43Z</time>
      </trkpt>
      <trkpt lat="44.47243" lon="5.93261">
        <ele>1444</ele>
        <time>2016-09-18T15:17:43Z</time>
      </trkpt>
      <trkpt lat="44.47237" lon="5.93031">
        <ele>1460</ele>
        <time>2016-09-18T15:19:43Z</time>
      </trkpt>
      <trkpt lat="44.47254" lon="5.92922">
        <ele>1454</ele>
        <time>2016-09-18T15:21:43Z</time>
      </trkpt>
      <trkpt lat="44.47222" lon="5.92832">
        <ele>1460</ele>
        <time>2016-09-18T15:23:43Z</time>
      </trkpt>
      <trkpt lat="44.47205" lon="5.92621">
        <ele>1448</ele>
        <time>2016-09-18T15:25:43Z</time>
      </trkpt>
      <trkpt lat="44.4711" lon="5.92424">
        <ele>1436</ele>
        <time>2016-09-18T15:27:43Z</time>
      </trkpt>
      <trkpt lat="44.47066" lon="5.92445">
        <ele>1442</ele>
        <time>2016-09-18T15:29:43Z</time>
      </trkpt>
      <trkpt lat="44.46958" lon="5.92535">
        <ele>1450</ele>
        <time>2016-09-18T15:31:43Z</time>
      </trkpt>
      <trkpt lat="44.469" lon="5.9246">
        <ele>1436</ele>
        <time>2016-09-18T15:33:43Z</time>
      </trkpt>
      <trkpt lat="44.46874" lon="5.9219">
        <ele>1413</ele>
        <time>2016-09-18T15:35:43Z</time>
      </trkpt>
      <trkpt lat="44.46776" lon="5.92093">
        <ele>1416</ele>
        <time>2016-09-18T15:37:43Z</time>
      </trkpt>
      <trkpt lat="44.46681" lon="5.92014">
        <ele>1396</ele>
        <time>2016-09-18T15:39:43Z</time>
      </trkpt>
      <trkpt lat="44.46677" lon="5.91965">
        <ele>1388</ele>
        <time>2016-09-18T15:41:43Z</time>
      </trkpt>
      <trkpt lat="44.4673" lon="5.91924">
        <ele>1381</ele>
        <time>2016-09-18T15:43:43Z</time>
      </trkpt>
      <trkpt lat="44.46825" lon="5.91799">
        <ele>1364</ele>
        <time>2016-09-18T15:45:43Z</time>
      </trkpt>
      <trkpt lat="44.46894" lon="5.91774">
        <ele>1351</ele>
        <time>2016-09-18T15:47:43Z</time>
      </trkpt>
      <trkpt lat="44.46824" lon="5.91716">
        <ele>1359</ele>
        <time>2016-09-18T15:49:43Z</time>
      </trkpt>
      <trkpt lat="44.46796" lon="5.91559">
        <ele>1327</ele>
        <time>2016-09-18T15:51:43Z</time>
      </trkpt>
      <trkpt lat="44.4675" lon="5.91598">
        <ele>1320</ele>
        <time>2016-09-18T15:53:43Z</time>
      </trkpt>
      <trkpt lat="44.46719" lon="5.91587">
        <ele>1303</ele>
        <time>2016-09-18T15:55:43Z</time>
      </trkpt>
      <trkpt lat="44.46644" lon="5.91632">
        <ele>1276</ele>
        <time>2016-09-18T15:57:43Z</time>
      </trkpt>
      <trkpt lat="44.46658" lon="5.91456">
        <ele>1241</ele>
        <time>2016-09-18T15:59:43Z</time>
      </trkpt>
      <trkpt lat="44.46644" lon="5.91364">
        <ele>1209</ele>
        <time>2016-09-18T16:01:43Z</time>
      </trkpt>
      <trkpt lat="44.466" lon="5.91398">
        <ele>1203</ele>
        <time>2016-09-18T16:03:43Z</time>
      </trkpt>
      <trkpt lat="44.46595" lon="5.9143">
        <ele>1207</ele>
        <time>2016-09-18T16:05:43Z</time>
      </trkpt>
      <trkpt lat="44.46543" lon="5.91448">
        <ele>1186</ele>
        <time>2016-09-18T16:07:43Z</time>
      </trkpt>
      <trkpt lat="44.46546" lon="5.9142">
        <ele>1184</ele>
        <time>2016-09-18T16:09:43Z</time>
      </trkpt>
      <trkpt lat="44.46528" lon="5.91411">
        <ele>1175</ele>
        <time>2016-09-18T16:11:43Z</time>
      </trkpt>
      <trkpt lat="44.46537" lon="5.91372">
        <ele>1173</ele>
        <time>2016-09-18T16:13:43Z</time>
      </trkpt>
      <trkpt lat="44.46496" lon="5.9139">
        <ele>1159</ele>
        <time>2016-09-18T16:15:43Z</time>
      </trkpt>
      <trkpt lat="44.4645" lon="5.91351">
        <ele>1137</ele>
        <time>2016-09-18T16:17:43Z</time>
      </trkpt>
      <trkpt lat="44.46465" lon="5.91325">
        <ele>1141</ele>
        <time>2016-09-18T16:19:43Z</time>
      </trkpt>
      <trkpt lat="44.46407" lon="5.91287">
        <ele>1119</ele>
        <time>2016-09-18T16:21:43Z</time>
      </trkpt>
      <trkpt lat="44.46343" lon="5.91306">
        <ele>1100</ele>
        <time>2016-09-18T16:23:43Z</time>
      </trkpt>
      <trkpt lat="44.46269" lon="5.91239">
        <ele>1096</ele>
        <time>2016-09-18T16:25:43Z</time>
      </trkpt>
      <trkpt lat="44.46229" lon="5.91186">
        <ele>1084</ele>
        <time>2016-09-18T16:27:43Z</time>
      </trkpt>
      <trkpt lat="44.46161" lon="5.91128">
        <ele>1065</ele>
        <time>2016-09-18T16:29:43Z</time>
      </trkpt>
      <trkpt lat="44.46102" lon="5.91164">
        <ele>1056</ele>
        <time>2016-09-18T16:31:43Z</time>
      </trkpt>
      <trkpt lat="44.46093" lon="5.91109">
        <ele>1042</ele>
        <time>2016-09-18T16:33:43Z</time>
      </trkpt>
      <trkpt lat="44.46047" lon="5.91134">
        <ele>1034</ele>
        <time>2016-09-18T16:35:43Z</time>
      </trkpt>
      <trkpt lat="44.45995" lon="5.91119">
        <ele>1017</ele>
        <time>2016-09-18T16:37:43Z</time>
      </trkpt>
      <trkpt lat="44.45848" lon="5.9122">
        <ele>961</ele>
        <time>2016-09-18T16:39:43Z</time>
      </trkpt>
      <trkpt lat="44.45882" lon="5.91061">
        <ele>976</ele>
        <time>2016-09-18T16:41:43Z</time>
      </trkpt>
      <trkpt lat="44.45876" lon="5.90997">
        <ele>966</ele>
        <time>2016-09-18T16:43:43Z</time>
      </trkpt>
      <trkpt lat="44.45934" lon="5.90883">
        <ele>958</ele>
        <time>2016-09-18T16:45:43Z</time>
      </trkpt>
      <trkpt lat="44.45735" lon="5.90862">
        <ele>931</ele>
        <time>2016-09-18T16:47:43Z</time>
      </trkpt>
      <trkpt lat="44.45612" lon="5.90894">
        <ele>918</ele>
        <time>2016-09-18T16:49:43Z</time>
      </trkpt>
      <trkpt lat="44.45548" lon="5.91027">
        <ele>917</ele>
        <time>2016-09-18T16:51:43Z</time>
      </trkpt>
      <trkpt lat="44.45523" lon="5.9084">
        <ele>896</ele>
        <time>2016-09-18T16:53:43Z</time>
      </trkpt>
      <trkpt lat="44.4558" lon="5.908">
        <ele>900</ele>
        <time>2016-09-18T16:55:43Z</time>
      </trkpt>
      <trkpt lat="44.45601" lon="5.90581">
        <ele>920</ele>
        <time>2016-09-18T16:57:43Z</time>
      </trkpt>
      <trkpt lat="44.45513" lon="5.90551">
        <ele>932</ele>
        <time>2016-09-18T16:59:43Z</time>
      </trkpt>
      <trkpt lat="44.45419" lon="5.90581">
        <ele>937</ele>
        <time>2016-09-18T17:01:43Z</time>
      </trkpt>
      <trkpt lat="44.45324" lon="5.90559">
        <ele>942</ele>
        <time>2016-09-18T17:03:43Z</time>
      </trkpt>
      <trkpt lat="44.45298" lon="5.90437">
        <ele>956</ele>
        <time>2016-09-18T17:05:43Z</time>
      </trkpt>
      <trkpt lat="44.4524" lon="5.90304">
        <ele>972</ele>
        <time>2016-09-18T17:07:43Z</time>
      </trkpt>
      <trkpt lat="44.45188" lon="5.90312">
        <ele>974</ele>
        <time>2016-09-18T17:09:43Z</time>
      </trkpt>
      <trkpt lat="44.45136" lon="5.90456">
        <ele>958</ele>
        <time>2016-09-18T17:11:43Z</time>
      </trkpt>
      <trkpt lat="44.45052" lon="5.90488">
        <ele>958</ele>
        <time>2016-09-18T17:13:43Z</time>
      </trkpt>
      <trkpt lat="44.44888" lon="5.90724">
        <ele>941</ele>
        <time>2016-09-18T17:15:43Z</time>
      </trkpt>
      <trkpt lat="44.44793" lon="5.90686">
        <ele>951</ele>
        <time>2016-09-18T17:17:43Z</time>
      </trkpt>
      <trkpt lat="44.44741" lon="5.90697">
        <ele>959</ele>
        <time>2016-09-18T17:19:43Z</time>
      </trkpt>
      <trkpt lat="44.44692" lon="5.90692">
        <ele>971</ele>
        <time>2016-09-18T17:21:43Z</time>
      </trkpt>
      <trkpt lat="44.44604" lon="5.90574">
        <ele>999</ele>
        <time>2016-09-18T17:23:43Z</time>
      </trkpt>
      <trkpt lat="44.44485" lon="5.90467">
        <ele>1048</ele>
        <time>2016-09-18T17:25:43Z</time>
      </trkpt>
      <trkpt lat="44.44424" lon="5.9042">
        <ele>1069</ele>
        <time>2016-09-18T17:27:43Z</time>
      </trkpt>
      <trkpt lat="44.44355" lon="5.90287">
        <ele>1092</ele>
        <time>2016-09-18T17:29:43Z</time>
      </trkpt>
      <trkpt lat="44.44352" lon="5.90171">
        <ele>1106</ele>
        <time>2016-09-18T17:31:43Z</time>
      </trkpt>
      <trkpt lat="44.44284" lon="5.90053">
        <ele>1136</ele>
        <time>2016-09-18T17:33:43Z</time>
      </trkpt>
      <trkpt lat="44.44244" lon="5.90059">
        <ele>1149</ele>
        <time>2016-09-18T17:35:43Z</time>
      </trkpt>
      <trkpt lat="44.44244" lon="5.90111">
        <ele>1147</ele>
        <time>2016-09-18T17:37:43Z</time>
      </trkpt>
      <trkpt lat="44.44206" lon="5.90143">
        <ele>1158</ele>
        <time>2016-09-18T17:39:43Z</time>
      </trkpt>
      <trkpt lat="44.44195" lon="5.8998">
        <ele>1180</ele>
        <time>2016-09-18T17:41:43Z</time>
      </trkpt>
      <trkpt lat="44.44152" lon="5.89819">
        <ele>1211</ele>
        <time>2016-09-18T17:43:43Z</time>
      </trkpt>
      <trkpt lat="44.44082" lon="5.89684">
        <ele>1234</ele>
        <time>2016-09-18T17:45:43Z</time>
      </trkpt>
      <trkpt lat="44.44087" lon="5.89561">
        <ele>1245</ele>
        <time>2016-09-18T17:47:43Z</time>
      </trkpt>
      <trkpt lat="44.44031" lon="5.89617">
        <ele>1255</ele>
        <time>2016-09-18T17:49:43Z</time>
      </trkpt>
      <trkpt lat="44.44016" lon="5.89585">
        <ele>1263</ele>
        <time>2016-09-18T17:51:43Z</time>
      </trkpt>
      <trkpt lat="44.44047" lon="5.89467">
        <ele>1268</ele>
        <time>2016-09-18T17:53:43Z</time>
      </trkpt>
      <trkpt lat="44.44008" lon="5.89425">
        <ele>1283</ele>
        <time>2016-09-18T17:55:43Z</time>
      </trkpt>
      <trkpt lat="44.43993" lon="5.8946">
        <ele>1283</ele>
        <time>2016-09-18T17:57:43Z</time>
      </trkpt>
      <trkpt lat="44.44003" lon="5.89498">
        <ele>1275</ele>
        <time>2016-09-18T17:59:43Z</time>
      </trkpt>
      <trkpt lat="44.43968" lon="5.89528">
        <ele>1284</ele>
        <time>2016-09-18T18:01:43Z</time>
      </trkpt>
      <trkpt lat="44.4396" lon="5.89487">
        <ele>1289</ele>
        <time>2016-09-18T18:03:43Z</time>
      </trkpt>
      <trkpt lat="44.43921" lon="5.89429">
        <ele>1304</ele>
        <time>2016-09-18T18:05:43Z</time>
      </trkpt>
      <trkpt lat="44.43957" lon="5.89354">
        <ele>1313</ele>
        <time>2016-09-18T18:07:43Z</time>
      </trkpt>
      <trkpt lat="44.44022" lon="5.89328">
        <ele>1305</ele>
        <time>2016-09-18T18:09:43Z</time>
      </trkpt>
      <trkpt lat="44.44032" lon="5.89272">
        <ele>1323</ele>
        <time>2016-09-18T18:11:43Z</time>
      </trkpt>
      <trkpt lat="44.44074" lon="5.89235">
        <ele>1323</ele>
        <time>2016-09-18T18:13:43Z</time>
      </trkpt>
      <trkpt lat="44.44088" lon="5.89152">
        <ele>1334</ele>
        <time>2016-09-18T18:15:43Z</time>
      </trkpt>
      <trkpt lat="44.44114" lon="5.8908">
        <ele>1337</ele>
        <time>2016-09-18T18:17:43Z</time>
      </trkpt>
      <trkpt lat="44.44008" lon="5.89119">
        <ele>1353</ele>
        <time>2016-09-18T18:19:43Z</time>
      </trkpt>
      <trkpt lat="44.44031" lon="5.89057">
        <ele>1355</ele>
        <time>2016-09-18T18:21:43Z</time>
      </trkpt>
      <trkpt lat="44.4392" lon="5.89051">
        <ele>1378</ele>
        <time>2016-09-18T18:23:43Z</time>
      </trkpt>
      <trkpt lat="44.43903" lon="5.89199">
        <ele>1373</ele>
        <time>2016-09-18T18:25:43Z</time>
      </trkpt>
      <trkpt lat="44.43797" lon="5.89259">
        <ele>1390</ele>
        <time>2016-09-18T18:27:43Z</time>
      </trkpt>
      <trkpt lat="44.43748" lon="5.89252">
        <ele>1402</ele>
        <time>2016-09-18T18:29:43Z</time>
      </trkpt>
      <trkpt lat="44.43642" lon="5.89351">
        <ele>1409</ele>
        <time>2016-09-18T18:31:43Z</time>
      </trkpt>
      <trkpt lat="44.43593" lon="5.89385">
        <ele>1420</ele>
        <time>2016-09-18T18:33:43Z</time>
      </trkpt>
      <trkpt lat="44.43575" lon="5.89482">
        <ele>1415</ele>
        <time>2016-09-18T18:35:43Z</time>
      </trkpt>
      <trkpt lat="44.43483" lon="5.89525">
        <ele>1421</ele>
        <time>2016-09-18T18:37:43Z</time>
      </trkpt>
      <trkpt lat="44.43405" lon="5.89615">
        <ele>1419</ele>
        <time>2016-09-18T18:39:43Z</time>
      </trkpt>
      <trkpt lat="44.43209" lon="5.89617">
        <ele>1434</ele>
        <time>2016-09-18T18:41:43Z</time>
      </trkpt>
      <trkpt lat="44.43114" lon="5.89641">
        <ele>1443</ele>
        <time>2016-09-18T18:43:43Z</time>
      </trkpt>
      <trkpt lat="44.43063" lon="5.89737">
        <ele>1425</ele>
        <time>2016-09-18T18:45:43Z</time>
      </trkpt>
      <trkpt lat="44.42971" lon="5.89722">
        <ele>1431</ele>
        <time>2016-09-18T18:47:43Z</time>
      </trkpt>
      <trkpt lat="44.42939" lon="5.89718">
        <ele>1430</ele>
        <time>2016-09-18T18:49:43Z</time>
      </trkpt>
      <trkpt lat="44.42905" lon="5.89682">
        <ele>1441</ele>
        <time>2016-09-18T18:51:43Z</time>
      </trkpt>
      <trkpt lat="44.42778" lon="5.89737">
        <ele>1438</ele>
        <time>2016-09-18T18:53:43Z</time>
      </trkpt>
      <trkpt lat="44.42726" lon="5.89733">
        <ele>1448</ele>
        <time>2016-09-18T18:55:43Z</time>
      </trkpt>
      <trkpt lat="44.4266" lon="5.89793">
        <ele>1443</ele>
        <time>2016-09-18T18:57:43Z</time>
      </trkpt>
      <trkpt lat="44.42583" lon="5.898">
        <ele>1451</ele>
        <time>2016-09-18T18:59:43Z</time>
      </trkpt>
      <trkpt lat="44.42495" lon="5.89825">
        <ele>1444</ele>
        <time>2016-09-18T19:01:43Z</time>
      </trkpt>
      <trkpt lat="44.424" lon="5.89793">
        <ele>1448</ele>
        <time>2016-09-18T19:03:43Z</time>
      </trkpt>
      <trkpt lat="44.42349" lon="5.89806">
        <ele>1443</ele>
        <time>2016-09-18T19:05:43Z</time>
      </trkpt>
      <trkpt lat="44.42285" lon="5.89733">
        <ele>1443</ele>
        <time>2016-09-18T19:07:43Z</time>
      </trkpt>
      <trkpt lat="44.42262" lon="5.89669">
        <ele>1432</ele>
        <time>2016-09-18T19:09:43Z</time>
      </trkpt>
      <trkpt lat="44.42245" lon="5.89606">
        <ele>1422</ele>
        <time>2016-09-18T19:11:43Z</time>
      </trkpt>
      <trkpt lat="44.42269" lon="5.89484">
        <ele>1419</ele>
        <time>2016-09-18T19:13:43Z</time>
      </trkpt>
      <trkpt lat="44.42231" lon="5.89454">
        <ele>1416</ele>
        <time>2016-09-18T19:15:43Z</time>
      </trkpt>
      <trkpt lat="44.42245" lon="5.89398">
        <ele>1413</ele>
        <time>2016-09-18T19:17:43Z</time>
      </trkpt>
      <trkpt lat="44.42387" lon="5.89203">
        <ele>1394</ele>
        <time>2016-09-18T19:19:43Z</time>
      </trkpt>
      <trkpt lat="44.42459" lon="5.88976">
        <ele>1361</ele>
        <time>2016-09-18T19:21:43Z</time>
      </trkpt>
      <trkpt lat="44.42513" lon="5.88922">
        <ele>1358</ele>
        <time>2016-09-18T19:23:43Z</time>
      </trkpt>
      <trkpt lat="44.42548" lon="5.88819">
        <ele>1352</ele>
        <time>2016-09-18T19:25:43Z</time>
      </trkpt>
      <trkpt lat="44.42622" lon="5.88652">
        <ele>1338</ele>
        <time>2016-09-18T19:27:43Z</time>
      </trkpt>
      <trkpt lat="44.42803" lon="5.88379">
        <ele>1317</ele>
        <time>2016-09-18T19:29:43Z</time>
      </trkpt>
      <trkpt lat="44.4285" lon="5.88304">
        <ele>1314</ele>
        <time>2016-09-18T19:31:43Z</time>
      </trkpt>
      <trkpt lat="44.42879" lon="5.88057">
        <ele>1292</ele>
        <time>2016-09-18T19:33:43Z</time>
      </trkpt>
      <trkpt lat="44.4291" lon="5.87982">
        <ele>1289</ele>
        <time>2016-09-18T19:35:43Z</time>
      </trkpt>
      <trkpt lat="44.42974" lon="5.87918">
        <ele>1295</ele>
        <time>2016-09-18T19:37:43Z</time>
      </trkpt>
      <trkpt lat="44.43022" lon="5.87778">
        <ele>1291</ele>
        <time>2016-09-18T19:39:43Z</time>
      </trkpt>
      <trkpt lat="44.43045" lon="5.87611">
        <ele>1297</ele>
        <time>2016-09-18T19:41:43Z</time>
      </trkpt>
      <trkpt lat="44.42939" lon="5.87435">
        <ele>1304</ele>
        <time>2016-09-18T19:43:43Z</time>
      </trkpt>
      <trkpt lat="44.42873" lon="5.87414">
        <ele>1298</ele>
        <time>2016-09-18T19:45:43Z</time>
      </trkpt>
      <trkpt lat="44.42862" lon="5.8736">
        <ele>1303</ele>
        <time>2016-09-18T19:47:43Z</time>
      </trkpt>
      <trkpt lat="44.42778" lon="5.87351">
        <ele>1292</ele>
        <time>2016-09-18T19:49:43Z</time>
      </trkpt>
    </trkseg>
  </trk>
</gpx>